sensor_id;sensor_type;location;lat;lon;timestamp;P1;durP1;ratioP1;P2;durP2;ratioP2
12675;SDS011;63820;65.654;21.944;2023-08-24T00:01:59;6.87;;;6.17;;
12675;SDS011;63820;65.654;21.944;2023-08-24T00:04:43;9.03;;;6.63;;
12675;SDS011;63820;65.654;21.944;2023-08-24T00:07:27;8.10;;;6.67;;
12675;SDS011;63820;65.654;21.944;2023-08-24T00:10:11;7.43;;;6.03;;
12675;SDS011;63820;65.654;21.944;2023-08-24T00:12:56;7.67;;;6.27;;
12675;SDS011;63820;65.654;21.944;2023-08-24T00:15:40;9.30;;;6.67;;
12675;SDS011;63820;65.654;21.944;2023-08-24T00:18:25;8.60;;;6.00;;
12675;SDS011;63820;65.654;21.944;2023-08-24T00:21:10;8.17;;;6.80;;
12675;SDS011;63820;65.654;21.944;2023-08-24T00:23:54;7.70;;;6.77;;
12675;SDS011;63820;65.654;21.944;2023-08-24T00:26:38;8.73;;;7.20;;
12675;SDS011;63820;65.654;21.944;2023-08-24T00:29:22;8.63;;;6.80;;
12675;SDS011;63820;65.654;21.944;2023-08-24T00:32:06;8.23;;;5.90;;
12675;SDS011;63820;65.654;21.944;2023-08-24T00:34:51;8.10;;;6.23;;
12675;SDS011;63820;65.654;21.944;2023-08-24T00:37:36;7.57;;;6.63;;
12675;SDS011;63820;65.654;21.944;2023-08-24T00:40:20;8.23;;;6.13;;
12675;SDS011;63820;65.654;21.944;2023-08-24T00:43:04;6.83;;;6.13;;
12675;SDS011;63820;65.654;21.944;2023-08-24T00:45:52;8.70;;;6.87;;
12675;SDS011;63820;65.654;21.944;2023-08-24T00:48:39;7.70;;;6.47;;
12675;SDS011;63820;65.654;21.944;2023-08-24T00:51:24;11.43;;;7.60;;
12675;SDS011;63820;65.654;21.944;2023-08-24T00:54:08;10.03;;;6.73;;
12675;SDS011;63820;65.654;21.944;2023-08-24T00:56:52;10.00;;;7.33;;
12675;SDS011;63820;65.654;21.944;2023-08-24T00:59:36;7.17;;;6.17;;
12675;SDS011;63820;65.654;21.944;2023-08-24T01:02:20;9.37;;;7.07;;
12675;SDS011;63820;65.654;21.944;2023-08-24T01:05:04;10.53;;;7.67;;
12675;SDS011;63820;65.654;21.944;2023-08-24T01:07:50;10.07;;;7.30;;
12675;SDS011;63820;65.654;21.944;2023-08-24T01:13:50;8.33;;;7.43;;
12675;SDS011;63820;65.654;21.944;2023-08-24T01:16:47;9.90;;;7.00;;
12675;SDS011;63820;65.654;21.944;2023-08-24T01:27:59;11.67;;;7.70;;
12675;SDS011;63820;65.654;21.944;2023-08-24T01:30:44;10.57;;;7.80;;
12675;SDS011;63820;65.654;21.944;2023-08-24T01:33:28;10.40;;;7.30;;
12675;SDS011;63820;65.654;21.944;2023-08-24T01:36:14;8.40;;;7.40;;
12675;SDS011;63820;65.654;21.944;2023-08-24T01:39:09;8.70;;;7.60;;
12675;SDS011;63820;65.654;21.944;2023-08-24T01:41:58;12.60;;;8.63;;
12675;SDS011;63820;65.654;21.944;2023-08-24T01:44:49;7.93;;;7.13;;
12675;SDS011;63820;65.654;21.944;2023-08-24T01:47:36;14.37;;;7.80;;
12675;SDS011;63820;65.654;21.944;2023-08-24T01:50:22;9.70;;;7.87;;
12675;SDS011;63820;65.654;21.944;2023-08-24T01:53:07;10.80;;;7.10;;
12675;SDS011;63820;65.654;21.944;2023-08-24T01:55:51;8.70;;;7.00;;
12675;SDS011;63820;65.654;21.944;2023-08-24T01:58:37;9.00;;;7.40;;
12675;SDS011;63820;65.654;21.944;2023-08-24T02:01:21;10.73;;;7.63;;
12675;SDS011;63820;65.654;21.944;2023-08-24T02:04:05;11.17;;;7.17;;
12675;SDS011;63820;65.654;21.944;2023-08-24T02:06:49;7.70;;;6.47;;
12675;SDS011;63820;65.654;21.944;2023-08-24T02:09:33;8.37;;;6.17;;
12675;SDS011;63820;65.654;21.944;2023-08-24T02:12:17;10.33;;;7.57;;
12675;SDS011;63820;65.654;21.944;2023-08-24T02:15:01;9.07;;;7.20;;
12675;SDS011;63820;65.654;21.944;2023-08-24T02:17:46;10.40;;;7.33;;
12675;SDS011;63820;65.654;21.944;2023-08-24T02:20:30;11.73;;;7.37;;
12675;SDS011;63820;65.654;21.944;2023-08-24T02:23:19;12.00;;;8.67;;
12675;SDS011;63820;65.654;21.944;2023-08-24T02:26:03;11.53;;;8.87;;
12675;SDS011;63820;65.654;21.944;2023-08-24T02:28:48;13.20;;;9.57;;
12675;SDS011;63820;65.654;21.944;2023-08-24T02:31:32;11.50;;;8.70;;
12675;SDS011;63820;65.654;21.944;2023-08-24T02:34:16;14.53;;;9.23;;
12675;SDS011;63820;65.654;21.944;2023-08-24T02:37:00;10.97;;;8.57;;
12675;SDS011;63820;65.654;21.944;2023-08-24T02:39:44;11.70;;;8.67;;
12675;SDS011;63820;65.654;21.944;2023-08-24T02:42:33;9.77;;;7.90;;
12675;SDS011;63820;65.654;21.944;2023-08-24T02:45:17;8.80;;;7.70;;
12675;SDS011;63820;65.654;21.944;2023-08-24T02:48:01;12.00;;;8.60;;
12675;SDS011;63820;65.654;21.944;2023-08-24T02:50:45;11.87;;;9.70;;
12675;SDS011;63820;65.654;21.944;2023-08-24T02:53:31;9.20;;;7.87;;
12675;SDS011;63820;65.654;21.944;2023-08-24T02:56:16;11.60;;;8.30;;
12675;SDS011;63820;65.654;21.944;2023-08-24T02:59:00;11.17;;;8.23;;
12675;SDS011;63820;65.654;21.944;2023-08-24T03:01:44;10.60;;;8.33;;
12675;SDS011;63820;65.654;21.944;2023-08-24T03:04:28;14.10;;;8.93;;
12675;SDS011;63820;65.654;21.944;2023-08-24T03:07:12;11.10;;;8.37;;
12675;SDS011;63820;65.654;21.944;2023-08-24T03:09:57;9.50;;;7.67;;
12675;SDS011;63820;65.654;21.944;2023-08-24T03:12:40;10.77;;;8.13;;
12675;SDS011;63820;65.654;21.944;2023-08-24T03:15:25;10.03;;;7.33;;
12675;SDS011;63820;65.654;21.944;2023-08-24T03:18:12;7.70;;;6.80;;
12675;SDS011;63820;65.654;21.944;2023-08-24T03:20:56;8.30;;;6.97;;
12675;SDS011;63820;65.654;21.944;2023-08-24T03:23:41;8.57;;;7.13;;
12675;SDS011;63820;65.654;21.944;2023-08-24T03:26:25;8.90;;;7.17;;
12675;SDS011;63820;65.654;21.944;2023-08-24T03:29:09;9.77;;;6.67;;
12675;SDS011;63820;65.654;21.944;2023-08-24T03:31:53;11.80;;;7.13;;
12675;SDS011;63820;65.654;21.944;2023-08-24T03:34:37;15.07;;;8.63;;
12675;SDS011;63820;65.654;21.944;2023-08-24T03:37:21;11.97;;;8.00;;
12675;SDS011;63820;65.654;21.944;2023-08-24T03:40:05;16.13;;;8.60;;
12675;SDS011;63820;65.654;21.944;2023-08-24T03:42:50;17.17;;;8.80;;
12675;SDS011;63820;65.654;21.944;2023-08-24T03:45:34;15.50;;;8.10;;
12675;SDS011;63820;65.654;21.944;2023-08-24T03:48:18;16.67;;;8.10;;
12675;SDS011;63820;65.654;21.944;2023-08-24T03:51:02;17.10;;;8.40;;
12675;SDS011;63820;65.654;21.944;2023-08-24T03:53:46;19.50;;;8.47;;
12675;SDS011;63820;65.654;21.944;2023-08-24T03:56:31;12.23;;;8.20;;
12675;SDS011;63820;65.654;21.944;2023-08-24T03:59:15;13.10;;;7.63;;
12675;SDS011;63820;65.654;21.944;2023-08-24T04:02:00;13.50;;;8.37;;
12675;SDS011;63820;65.654;21.944;2023-08-24T04:04:46;14.30;;;8.37;;
12675;SDS011;63820;65.654;21.944;2023-08-24T04:07:30;15.70;;;8.20;;
12675;SDS011;63820;65.654;21.944;2023-08-24T04:10:15;12.63;;;7.63;;
12675;SDS011;63820;65.654;21.944;2023-08-24T04:12:59;12.30;;;7.40;;
12675;SDS011;63820;65.654;21.944;2023-08-24T04:15:43;8.47;;;7.00;;
12675;SDS011;63820;65.654;21.944;2023-08-24T04:18:27;10.37;;;6.60;;
12675;SDS011;63820;65.654;21.944;2023-08-24T04:21:11;9.67;;;6.73;;
12675;SDS011;63820;65.654;21.944;2023-08-24T04:23:55;11.47;;;6.87;;
12675;SDS011;63820;65.654;21.944;2023-08-24T04:26:39;8.40;;;6.47;;
12675;SDS011;63820;65.654;21.944;2023-08-24T04:29:23;18.27;;;7.37;;
12675;SDS011;63820;65.654;21.944;2023-08-24T04:32:07;12.73;;;6.47;;
12675;SDS011;63820;65.654;21.944;2023-08-24T04:34:52;12.37;;;6.93;;
12675;SDS011;63820;65.654;21.944;2023-08-24T04:37:35;15.33;;;7.37;;
12675;SDS011;63820;65.654;21.944;2023-08-24T04:40:20;14.90;;;7.53;;
12675;SDS011;63820;65.654;21.944;2023-08-24T04:43:04;19.67;;;8.37;;
12675;SDS011;63820;65.654;21.944;2023-08-24T04:45:49;21.13;;;8.43;;
12675;SDS011;63820;65.654;21.944;2023-08-24T04:48:37;20.67;;;7.60;;
12675;SDS011;63820;65.654;21.944;2023-08-24T04:51:21;31.20;;;9.47;;
12675;SDS011;63820;65.654;21.944;2023-08-24T04:54:05;26.10;;;8.87;;
12675;SDS011;63820;65.654;21.944;2023-08-24T04:56:49;31.17;;;8.47;;
12675;SDS011;63820;65.654;21.944;2023-08-24T04:59:33;23.43;;;8.17;;
12675;SDS011;63820;65.654;21.944;2023-08-24T05:02:17;15.70;;;8.17;;
12675;SDS011;63820;65.654;21.944;2023-08-24T05:05:01;18.43;;;7.53;;
12675;SDS011;63820;65.654;21.944;2023-08-24T05:07:45;13.17;;;6.73;;
12675;SDS011;63820;65.654;21.944;2023-08-24T05:10:30;14.27;;;6.63;;
12675;SDS011;63820;65.654;21.944;2023-08-24T05:13:14;11.97;;;6.47;;
12675;SDS011;63820;65.654;21.944;2023-08-24T05:15:58;10.50;;;6.47;;
12675;SDS011;63820;65.654;21.944;2023-08-24T05:18:42;13.93;;;6.53;;
12675;SDS011;63820;65.654;21.944;2023-08-24T05:21:26;16.17;;;6.50;;
12675;SDS011;63820;65.654;21.944;2023-08-24T05:24:10;16.10;;;6.33;;
12675;SDS011;63820;65.654;21.944;2023-08-24T05:26:54;14.37;;;6.50;;
12675;SDS011;63820;65.654;21.944;2023-08-24T05:29:38;10.70;;;5.87;;
12675;SDS011;63820;65.654;21.944;2023-08-24T05:32:22;10.50;;;6.00;;
12675;SDS011;63820;65.654;21.944;2023-08-24T05:35:07;9.73;;;5.87;;
12675;SDS011;63820;65.654;21.944;2023-08-24T05:37:52;10.00;;;5.97;;
12675;SDS011;63820;65.654;21.944;2023-08-24T05:40:36;9.93;;;6.57;;
12675;SDS011;63820;65.654;21.944;2023-08-24T05:43:21;8.50;;;5.80;;
12675;SDS011;63820;65.654;21.944;2023-08-24T05:46:05;10.80;;;6.10;;
12675;SDS011;63820;65.654;21.944;2023-08-24T05:48:49;8.43;;;5.40;;
12675;SDS011;63820;65.654;21.944;2023-08-24T05:51:33;6.53;;;5.20;;
12675;SDS011;63820;65.654;21.944;2023-08-24T05:54:18;6.97;;;5.20;;
12675;SDS011;63820;65.654;21.944;2023-08-24T05:57:02;6.27;;;4.67;;
12675;SDS011;63820;65.654;21.944;2023-08-24T05:59:47;5.13;;;4.63;;
12675;SDS011;63820;65.654;21.944;2023-08-24T06:02:31;8.17;;;5.63;;
12675;SDS011;63820;65.654;21.944;2023-08-24T06:05:15;6.10;;;4.60;;
12675;SDS011;63820;65.654;21.944;2023-08-24T06:08:01;6.13;;;4.87;;
12675;SDS011;63820;65.654;21.944;2023-08-24T06:10:46;7.27;;;4.73;;
12675;SDS011;63820;65.654;21.944;2023-08-24T06:13:30;7.37;;;4.87;;
12675;SDS011;63820;65.654;21.944;2023-08-24T06:16:14;8.13;;;5.30;;
12675;SDS011;63820;65.654;21.944;2023-08-24T06:18:58;10.17;;;5.30;;
12675;SDS011;63820;65.654;21.944;2023-08-24T06:21:42;7.57;;;5.17;;
12675;SDS011;63820;65.654;21.944;2023-08-24T06:24:26;9.93;;;4.93;;
12675;SDS011;63820;65.654;21.944;2023-08-24T06:27:10;8.83;;;4.80;;
12675;SDS011;63820;65.654;21.944;2023-08-24T06:29:54;9.80;;;4.27;;
12675;SDS011;63820;65.654;21.944;2023-08-24T06:32:38;7.20;;;4.30;;
12675;SDS011;63820;65.654;21.944;2023-08-24T06:35:22;7.30;;;4.40;;
12675;SDS011;63820;65.654;21.944;2023-08-24T06:38:06;6.20;;;4.13;;
12675;SDS011;63820;65.654;21.944;2023-08-24T06:40:50;6.05;;;4.38;;
12675;SDS011;63820;65.654;21.944;2023-08-24T06:43:34;4.80;;;4.18;;
12675;SDS011;63820;65.654;21.944;2023-08-24T06:46:18;6.82;;;3.97;;
12675;SDS011;63820;65.654;21.944;2023-08-24T06:49:02;4.22;;;3.72;;
12675;SDS011;63820;65.654;21.944;2023-08-24T06:51:47;7.13;;;3.97;;
12675;SDS011;63820;65.654;21.944;2023-08-24T06:54:31;4.20;;;3.60;;
12675;SDS011;63820;65.654;21.944;2023-08-24T06:57:15;4.63;;;3.83;;
12675;SDS011;63820;65.654;21.944;2023-08-24T06:59:58;5.25;;;3.90;;
12675;SDS011;63820;65.654;21.944;2023-08-24T07:02:43;7.65;;;3.90;;
12675;SDS011;63820;65.654;21.944;2023-08-24T07:05:27;4.43;;;3.67;;
12675;SDS011;63820;65.654;21.944;2023-08-24T07:08:13;3.83;;;3.50;;
12675;SDS011;63820;65.654;21.944;2023-08-24T07:10:57;4.97;;;3.00;;
12675;SDS011;63820;65.654;21.944;2023-08-24T07:13:42;5.78;;;3.47;;
12675;SDS011;63820;65.654;21.944;2023-08-24T07:16:26;3.80;;;3.38;;
12675;SDS011;63820;65.654;21.944;2023-08-24T07:19:10;4.95;;;3.50;;
12675;SDS011;63820;65.654;21.944;2023-08-24T07:21:54;3.75;;;3.45;;
12675;SDS011;63820;65.654;21.944;2023-08-24T07:24:38;3.25;;;2.95;;
12675;SDS011;63820;65.654;21.944;2023-08-24T07:27:22;2.90;;;2.60;;
12675;SDS011;63820;65.654;21.944;2023-08-24T07:30:07;3.53;;;2.60;;
12675;SDS011;63820;65.654;21.944;2023-08-24T07:32:53;3.28;;;2.85;;
12675;SDS011;63820;65.654;21.944;2023-08-24T07:35:38;2.90;;;2.47;;
12675;SDS011;63820;65.654;21.944;2023-08-24T07:38:23;4.50;;;2.58;;
12675;SDS011;63820;65.654;21.944;2023-08-24T07:41:07;4.18;;;2.78;;
12675;SDS011;63820;65.654;21.944;2023-08-24T07:43:53;3.03;;;2.55;;
12675;SDS011;63820;65.654;21.944;2023-08-24T07:46:38;3.20;;;2.90;;
12675;SDS011;63820;65.654;21.944;2023-08-24T07:49:23;3.05;;;2.58;;
12675;SDS011;63820;65.654;21.944;2023-08-24T07:52:07;2.97;;;2.75;;
12675;SDS011;63820;65.654;21.944;2023-08-24T07:54:51;2.80;;;2.60;;
12675;SDS011;63820;65.654;21.944;2023-08-24T07:57:36;3.20;;;3.00;;
12675;SDS011;63820;65.654;21.944;2023-08-24T08:00:21;4.22;;;2.80;;
12675;SDS011;63820;65.654;21.944;2023-08-24T08:03:06;3.13;;;2.88;;
12675;SDS011;63820;65.654;21.944;2023-08-24T08:05:50;3.17;;;2.88;;
12675;SDS011;63820;65.654;21.944;2023-08-24T08:08:34;3.42;;;3.13;;
12675;SDS011;63820;65.654;21.944;2023-08-24T08:11:18;2.55;;;2.35;;
12675;SDS011;63820;65.654;21.944;2023-08-24T08:14:02;3.25;;;2.28;;
12675;SDS011;63820;65.654;21.944;2023-08-24T08:16:46;4.75;;;2.10;;
12675;SDS011;63820;65.654;21.944;2023-08-24T08:19:30;3.83;;;2.30;;
12675;SDS011;63820;65.654;21.944;2023-08-24T08:22:14;2.40;;;2.20;;
12675;SDS011;63820;65.654;21.944;2023-08-24T08:24:58;2.88;;;2.47;;
12675;SDS011;63820;65.654;21.944;2023-08-24T08:27:42;3.42;;;2.45;;
12675;SDS011;63820;65.654;21.944;2023-08-24T08:30:25;3.75;;;2.75;;
12675;SDS011;63820;65.654;21.944;2023-08-24T08:33:09;3.28;;;2.63;;
12675;SDS011;63820;65.654;21.944;2023-08-24T08:35:54;3.30;;;3.00;;
12675;SDS011;63820;65.654;21.944;2023-08-24T08:38:38;3.80;;;2.80;;
12675;SDS011;63820;65.654;21.944;2023-08-24T08:41:22;3.25;;;2.95;;
12675;SDS011;63820;65.654;21.944;2023-08-24T08:44:12;4.13;;;3.03;;
12675;SDS011;63820;65.654;21.944;2023-08-24T08:46:57;5.30;;;3.15;;
12675;SDS011;63820;65.654;21.944;2023-08-24T08:49:43;4.10;;;3.13;;
12675;SDS011;63820;65.654;21.944;2023-08-24T08:52:27;7.07;;;3.50;;
12675;SDS011;63820;65.654;21.944;2023-08-24T08:55:10;3.87;;;3.23;;
12675;SDS011;63820;65.654;21.944;2023-08-24T08:57:56;5.30;;;3.53;;
12675;SDS011;63820;65.654;21.944;2023-08-24T09:00:42;3.30;;;3.00;;
12675;SDS011;63820;65.654;21.944;2023-08-24T09:03:26;3.47;;;3.17;;
12675;SDS011;63820;65.654;21.944;2023-08-24T09:06:12;4.30;;;3.30;;
12675;SDS011;63820;65.654;21.944;2023-08-24T09:08:56;4.23;;;3.43;;
12675;SDS011;63820;65.654;21.944;2023-08-24T09:11:41;4.20;;;3.17;;
12675;SDS011;63820;65.654;21.944;2023-08-24T09:14:26;4.60;;;3.70;;
12675;SDS011;63820;65.654;21.944;2023-08-24T09:17:10;5.57;;;3.33;;
12675;SDS011;63820;65.654;21.944;2023-08-24T09:19:58;3.67;;;3.03;;
12675;SDS011;63820;65.654;21.944;2023-08-24T09:22:43;4.27;;;2.97;;
12675;SDS011;63820;65.654;21.944;2023-08-24T09:25:29;3.57;;;2.97;;
12675;SDS011;63820;65.654;21.944;2023-08-24T09:28:13;3.53;;;3.17;;
12675;SDS011;63820;65.654;21.944;2023-08-24T09:30:59;3.00;;;2.70;;
12675;SDS011;63820;65.654;21.944;2023-08-24T09:33:44;5.00;;;3.30;;
12675;SDS011;63820;65.654;21.944;2023-08-24T09:36:34;4.33;;;3.27;;
12675;SDS011;63820;65.654;21.944;2023-08-24T09:39:20;5.83;;;3.07;;
12675;SDS011;63820;65.654;21.944;2023-08-24T09:42:04;5.60;;;3.27;;
12675;SDS011;63820;65.654;21.944;2023-08-24T09:44:49;3.77;;;3.47;;
12675;SDS011;63820;65.654;21.944;2023-08-24T09:47:33;4.63;;;3.40;;
12675;SDS011;63820;65.654;21.944;2023-08-24T09:50:16;4.07;;;3.10;;
12675;SDS011;63820;65.654;21.944;2023-08-24T09:53:01;3.37;;;3.07;;
12675;SDS011;63820;65.654;21.944;2023-08-24T09:56:00;3.37;;;3.10;;
12675;SDS011;63820;65.654;21.944;2023-08-24T09:58:45;3.40;;;3.10;;
12675;SDS011;63820;65.654;21.944;2023-08-24T10:01:30;3.73;;;2.53;;
12675;SDS011;63820;65.654;21.944;2023-08-24T10:04:17;4.50;;;3.17;;
12675;SDS011;63820;65.654;21.944;2023-08-24T10:07:08;4.07;;;3.40;;
12675;SDS011;63820;65.654;21.944;2023-08-24T10:10:02;3.60;;;3.30;;
12675;SDS011;63820;65.654;21.944;2023-08-24T10:12:49;3.15;;;2.90;;
12675;SDS011;63820;65.654;21.944;2023-08-24T10:15:35;4.40;;;2.85;;
12675;SDS011;63820;65.654;21.944;2023-08-24T10:18:21;3.72;;;2.80;;
12675;SDS011;63820;65.654;21.944;2023-08-24T10:21:07;3.72;;;2.53;;
12675;SDS011;63820;65.654;21.944;2023-08-24T10:23:52;2.65;;;2.45;;
12675;SDS011;63820;65.654;21.944;2023-08-24T10:26:40;3.38;;;2.10;;
12675;SDS011;63820;65.654;21.944;2023-08-24T10:29:24;2.10;;;1.90;;
12675;SDS011;63820;65.654;21.944;2023-08-24T10:32:11;2.30;;;2.10;;
12675;SDS011;63820;65.654;21.944;2023-08-24T10:34:56;2.30;;;2.10;;
12675;SDS011;63820;65.654;21.944;2023-08-24T10:37:40;2.78;;;2.10;;
12675;SDS011;63820;65.654;21.944;2023-08-24T10:40:32;2.88;;;2.10;;
12675;SDS011;63820;65.654;21.944;2023-08-24T10:43:17;2.45;;;2.25;;
12675;SDS011;63820;65.654;21.944;2023-08-24T10:46:02;4.82;;;2.25;;
12675;SDS011;63820;65.654;21.944;2023-08-24T10:51:31;2.03;;;1.90;;
12675;SDS011;63820;65.654;21.944;2023-08-24T10:54:30;2.08;;;1.90;;
12675;SDS011;63820;65.654;21.944;2023-08-24T11:00:08;2.83;;;2.10;;
12675;SDS011;63820;65.654;21.944;2023-08-24T11:02:54;2.60;;;2.40;;
12675;SDS011;63820;65.654;21.944;2023-08-24T11:05:40;2.42;;;2.22;;
12675;SDS011;63820;65.654;21.944;2023-08-24T11:12:00;2.92;;;2.53;;
12675;SDS011;63820;65.654;21.944;2023-08-24T11:14:50;2.58;;;2.30;;
12675;SDS011;63820;65.654;21.944;2023-08-24T11:17:38;3.33;;;2.60;;
12675;SDS011;63820;65.654;21.944;2023-08-24T11:20:22;2.75;;;2.45;;
12675;SDS011;63820;65.654;21.944;2023-08-24T11:23:06;2.80;;;2.60;;
12675;SDS011;63820;65.654;21.944;2023-08-24T11:25:52;3.40;;;2.60;;
12675;SDS011;63820;65.654;21.944;2023-08-24T11:28:41;3.17;;;2.63;;
12675;SDS011;63820;65.654;21.944;2023-08-24T11:31:25;3.58;;;2.65;;
12675;SDS011;63820;65.654;21.944;2023-08-24T11:34:09;2.58;;;2.38;;
12675;SDS011;63820;65.654;21.944;2023-08-24T11:36:54;3.10;;;2.60;;
12675;SDS011;63820;65.654;21.944;2023-08-24T11:39:38;3.33;;;2.42;;
12675;SDS011;63820;65.654;21.944;2023-08-24T11:42:35;2.80;;;2.53;;
12675;SDS011;63820;65.654;21.944;2023-08-24T11:45:20;2.85;;;2.60;;
12675;SDS011;63820;65.654;21.944;2023-08-24T11:48:05;2.75;;;2.55;;
12675;SDS011;63820;65.654;21.944;2023-08-24T11:50:50;2.70;;;2.50;;
12675;SDS011;63820;65.654;21.944;2023-08-24T11:53:39;5.40;;;2.50;;
12675;SDS011;63820;65.654;21.944;2023-08-24T11:56:24;2.60;;;2.33;;
12675;SDS011;63820;65.654;21.944;2023-08-24T11:59:14;2.92;;;2.42;;
12675;SDS011;63820;65.654;21.944;2023-08-24T12:01:58;2.22;;;2.03;;
12675;SDS011;63820;65.654;21.944;2023-08-24T12:04:42;2.47;;;2.28;;
12675;SDS011;63820;65.654;21.944;2023-08-24T12:07:27;3.15;;;2.28;;
12675;SDS011;63820;65.654;21.944;2023-08-24T12:10:12;2.30;;;2.10;;
12675;SDS011;63820;65.654;21.944;2023-08-24T12:13:03;2.40;;;2.20;;
12675;SDS011;63820;65.654;21.944;2023-08-24T12:15:52;3.22;;;2.30;;
12675;SDS011;63820;65.654;21.944;2023-08-24T12:18:45;2.50;;;2.30;;
12675;SDS011;63820;65.654;21.944;2023-08-24T12:21:31;2.50;;;2.30;;
12675;SDS011;63820;65.654;21.944;2023-08-24T12:24:15;3.35;;;2.55;;
12675;SDS011;63820;65.654;21.944;2023-08-24T12:26:59;2.60;;;2.40;;
12675;SDS011;63820;65.654;21.944;2023-08-24T12:29:45;3.58;;;2.78;;
12675;SDS011;63820;65.654;21.944;2023-08-24T12:32:43;2.67;;;2.47;;
12675;SDS011;63820;65.654;21.944;2023-08-24T12:35:28;2.63;;;2.42;;
12675;SDS011;63820;65.654;21.944;2023-08-24T12:38:12;2.50;;;2.30;;
12675;SDS011;63820;65.654;21.944;2023-08-24T12:40:56;2.53;;;2.33;;
12675;SDS011;63820;65.654;21.944;2023-08-24T12:43:41;2.10;;;1.95;;
12675;SDS011;63820;65.654;21.944;2023-08-24T12:46:25;3.35;;;2.30;;
12675;SDS011;63820;65.654;21.944;2023-08-24T12:49:11;3.70;;;2.20;;
12675;SDS011;63820;65.654;21.944;2023-08-24T12:51:55;2.00;;;1.90;;
12675;SDS011;63820;65.654;21.944;2023-08-24T12:54:39;2.33;;;2.13;;
12675;SDS011;63820;65.654;21.944;2023-08-24T12:57:23;2.40;;;2.20;;
12675;SDS011;63820;65.654;21.944;2023-08-24T13:00:08;2.42;;;2.22;;
12675;SDS011;63820;65.654;21.944;2023-08-24T13:02:53;2.30;;;2.10;;
12675;SDS011;63820;65.654;21.944;2023-08-24T13:05:37;2.50;;;2.22;;
12675;SDS011;63820;65.654;21.944;2023-08-24T13:08:21;2.70;;;2.00;;
12675;SDS011;63820;65.654;21.944;2023-08-24T13:11:05;3.08;;;2.30;;
12675;SDS011;63820;65.654;21.944;2023-08-24T13:13:49;2.67;;;2.45;;
12675;SDS011;63820;65.654;21.944;2023-08-24T13:16:33;4.13;;;2.60;;
12675;SDS011;63820;65.654;21.944;2023-08-24T13:19:17;3.03;;;1.95;;
12675;SDS011;63820;65.654;21.944;2023-08-24T13:22:01;2.40;;;2.20;;
12675;SDS011;63820;65.654;21.944;2023-08-24T13:24:45;2.97;;;2.35;;
12675;SDS011;63820;65.654;21.944;2023-08-24T13:27:29;2.95;;;2.42;;
12675;SDS011;63820;65.654;21.944;2023-08-24T13:30:13;2.85;;;2.63;;
12675;SDS011;63820;65.654;21.944;2023-08-24T13:32:58;3.40;;;2.55;;
12675;SDS011;63820;65.654;21.944;2023-08-24T13:35:42;2.78;;;2.53;;
12675;SDS011;63820;65.654;21.944;2023-08-24T13:38:26;3.42;;;2.63;;
12675;SDS011;63820;65.654;21.944;2023-08-24T13:41:10;3.22;;;2.72;;
12675;SDS011;63820;65.654;21.944;2023-08-24T13:43:54;2.92;;;2.70;;
12675;SDS011;63820;65.654;21.944;2023-08-24T13:46:38;2.88;;;2.58;;
12675;SDS011;63820;65.654;21.944;2023-08-24T13:49:22;4.18;;;2.90;;
12675;SDS011;63820;65.654;21.944;2023-08-24T13:52:06;4.45;;;2.75;;
12675;SDS011;63820;65.654;21.944;2023-08-24T13:54:51;3.05;;;2.75;;
12675;SDS011;63820;65.654;21.944;2023-08-24T13:57:35;3.00;;;2.78;;
12675;SDS011;63820;65.654;21.944;2023-08-24T14:00:19;3.13;;;2.83;;
12675;SDS011;63820;65.654;21.944;2023-08-24T14:03:03;3.03;;;2.70;;
12675;SDS011;63820;65.654;21.944;2023-08-24T14:05:48;3.10;;;2.80;;
12675;SDS011;63820;65.654;21.944;2023-08-24T14:08:33;3.17;;;2.90;;
12675;SDS011;63820;65.654;21.944;2023-08-24T14:11:17;3.00;;;2.70;;
12675;SDS011;63820;65.654;21.944;2023-08-24T14:14:02;3.30;;;2.73;;
12675;SDS011;63820;65.654;21.944;2023-08-24T14:16:46;3.92;;;3.28;;
12675;SDS011;63820;65.654;21.944;2023-08-24T14:19:30;3.00;;;2.80;;
12675;SDS011;63820;65.654;21.944;2023-08-24T14:22:14;2.63;;;2.43;;
12675;SDS011;63820;65.654;21.944;2023-08-24T14:24:58;2.80;;;2.60;;
12675;SDS011;63820;65.654;21.944;2023-08-24T14:27:42;2.90;;;2.70;;
12675;SDS011;63820;65.654;21.944;2023-08-24T14:30:26;4.07;;;2.85;;
12675;SDS011;63820;65.654;21.944;2023-08-24T14:33:10;3.22;;;2.70;;
12675;SDS011;63820;65.654;21.944;2023-08-24T14:35:54;3.35;;;2.72;;
12675;SDS011;63820;65.654;21.944;2023-08-24T14:38:38;3.50;;;3.20;;
12675;SDS011;63820;65.654;21.944;2023-08-24T14:41:23;3.33;;;2.93;;
12675;SDS011;63820;65.654;21.944;2023-08-24T14:44:08;3.00;;;2.80;;
12675;SDS011;63820;65.654;21.944;2023-08-24T14:46:52;3.27;;;2.50;;
12675;SDS011;63820;65.654;21.944;2023-08-24T14:49:36;2.80;;;2.60;;
12675;SDS011;63820;65.654;21.944;2023-08-24T14:52:20;3.87;;;3.07;;
12675;SDS011;63820;65.654;21.944;2023-08-24T14:55:05;3.77;;;2.80;;
12675;SDS011;63820;65.654;21.944;2023-08-24T14:57:51;3.13;;;2.83;;
12675;SDS011;63820;65.654;21.944;2023-08-24T15:00:36;3.57;;;2.70;;
12675;SDS011;63820;65.654;21.944;2023-08-24T15:03:20;3.10;;;2.80;;
12675;SDS011;63820;65.654;21.944;2023-08-24T15:06:05;3.40;;;3.00;;
12675;SDS011;63820;65.654;21.944;2023-08-24T15:08:52;2.90;;;2.70;;
12675;SDS011;63820;65.654;21.944;2023-08-24T15:11:36;4.30;;;3.10;;
12675;SDS011;63820;65.654;21.944;2023-08-24T15:14:20;4.23;;;3.10;;
12675;SDS011;63820;65.654;21.944;2023-08-24T15:17:04;3.53;;;2.80;;
12675;SDS011;63820;65.654;21.944;2023-08-24T15:19:49;3.03;;;2.83;;
12675;SDS011;63820;65.654;21.944;2023-08-24T15:22:33;3.30;;;3.00;;
12675;SDS011;63820;65.654;21.944;2023-08-24T15:25:17;3.00;;;2.73;;
12675;SDS011;63820;65.654;21.944;2023-08-24T15:28:01;3.27;;;2.80;;
12675;SDS011;63820;65.654;21.944;2023-08-24T15:30:45;3.77;;;2.97;;
12675;SDS011;63820;65.654;21.944;2023-08-24T15:33:29;3.10;;;2.90;;
12675;SDS011;63820;65.654;21.944;2023-08-24T15:36:14;3.20;;;2.90;;
12675;SDS011;63820;65.654;21.944;2023-08-24T15:38:58;2.97;;;2.67;;
12675;SDS011;63820;65.654;21.944;2023-08-24T15:41:42;3.30;;;3.00;;
12675;SDS011;63820;65.654;21.944;2023-08-24T15:44:26;3.07;;;2.80;;
12675;SDS011;63820;65.654;21.944;2023-08-24T15:47:10;3.23;;;2.70;;
12675;SDS011;63820;65.654;21.944;2023-08-24T15:49:54;3.40;;;3.10;;
12675;SDS011;63820;65.654;21.944;2023-08-24T15:52:38;3.47;;;2.87;;
12675;SDS011;63820;65.654;21.944;2023-08-24T15:55:22;2.97;;;2.77;;
12675;SDS011;63820;65.654;21.944;2023-08-24T15:58:06;3.30;;;2.80;;
12675;SDS011;63820;65.654;21.944;2023-08-24T16:00:51;2.87;;;2.63;;
12675;SDS011;63820;65.654;21.944;2023-08-24T16:03:35;3.30;;;3.00;;
12675;SDS011;63820;65.654;21.944;2023-08-24T16:06:19;4.90;;;2.73;;
12675;SDS011;63820;65.654;21.944;2023-08-24T16:09:03;3.00;;;2.80;;
12675;SDS011;63820;65.654;21.944;2023-08-24T16:11:47;3.17;;;2.83;;
12675;SDS011;63820;65.654;21.944;2023-08-24T16:14:31;2.97;;;2.77;;
12675;SDS011;63820;65.654;21.944;2023-08-24T16:17:15;5.17;;;2.77;;
12675;SDS011;63820;65.654;21.944;2023-08-24T16:20:01;3.10;;;2.80;;
12675;SDS011;63820;65.654;21.944;2023-08-24T16:22:50;3.53;;;2.90;;
12675;SDS011;63820;65.654;21.944;2023-08-24T16:25:34;2.97;;;2.57;;
12675;SDS011;63820;65.654;21.944;2023-08-24T16:28:18;3.43;;;2.63;;
12675;SDS011;63820;65.654;21.944;2023-08-24T16:31:02;3.33;;;2.80;;
12675;SDS011;63820;65.654;21.944;2023-08-24T16:33:46;3.80;;;2.87;;
12675;SDS011;63820;65.654;21.944;2023-08-24T16:36:30;4.07;;;2.80;;